Coward, South Carolina
Current Conditions -  °F | °C
As of 12:53 PM on Tuesday 21 Oct 2014 (Local Time) from KFLO Reporting Station
Clear Clear  
Wind Chill: 75°   Ceiling: Unl
Heat Index: 75°   Visibility: 10mi
Dew Point: 50°   Wind: 5mph
Humidity: 41%   Direction: 310°NW
Pressure: 29.91"   Gusts: NA
Location:  33.97°N, 79.75°W
Report Text: KFLO 211653Z 31004KT 10SM CLR 24/10 A2991 RMK AO2 SLP125 T02390100
Loading
Personal Weather Stations






























Interactive Weather Map
Tropical Storm Tracking
New forecast layout! Learn more

10-Day Weather Forecast

Advertisements
Track Severe Weather on mobile